logo tempoitalia

Diretta Meteo Vance-Enid, Stati Uniti (USA)lunedì 31 agosto ore 00:55

Mappa
Sereno 30 °C Sereno 24 Ore: T.min 26 T.max 41
Ponente Sud/Sud-Est Km/h 24 Punto di rugiada: 15 °C Umidità: 40% Visibilità: 10 Km
Il sole sorge alle: 07:02 Il sole tramonta alle: 20:01
31 Agosto 2026 00:55 tempo osservato: Sereno Sereno 30 40 1011 vento: Nord S/SE 24
30 Agosto 2026 23:55 tempo osservato: Sereno Sereno 31 37 1011 vento: Nord S/SE 27.8
30 Agosto 2026 22:55 tempo osservato: Sereno Sereno 31 35 1011 vento: Nord SE 20.3
30 Agosto 2026 21:55 tempo osservato: Sereno Sereno 33 31 1010 vento: Nord S/SE 20.3
30 Agosto 2026 20:55 tempo osservato: Sereno Sereno 34 30 1010 vento: Nord S/SE 18.5
30 Agosto 2026 19:55 tempo osservato: Sereno Sereno 36 26 1009 vento: Nord S/SE 20.3
30 Agosto 2026 18:55 tempo osservato: Sereno Sereno 38 24 1009 vento: Nord S 29.6
30 Agosto 2026 17:55 tempo osservato: Sereno Sereno 39 24 1009 vento: Nord S/SE 31.5
30 Agosto 2026 16:55 tempo osservato: Sereno Sereno 40 23 1009 vento: Nord S 27.8
30 Agosto 2026 15:55 tempo osservato: Sereno Sereno 40 24 1009 vento: Nord S 38.8
30 Agosto 2026 15:48 tempo osservato: Sereno Sereno 41 23 1009 vento: Nord S/SE 35.2
30 Agosto 2026 15:41 tempo osservato: Sereno Sereno 41 21 1009 vento: Nord S/SO 20.3
30 Agosto 2026 14:55 tempo osservato: Sereno Sereno 40 26 1010 vento: Nord S 29.6
30 Agosto 2026 14:49 tempo osservato: Sereno Sereno 40 26 1010 vento: Nord S 37
30 Agosto 2026 14:33 tempo osservato: Sereno Sereno 40 26 1010 vento: Nord S/SO 29.6
30 Agosto 2026 13:55 tempo osservato: Sereno Sereno 40 26 1011 vento: Nord S/SO 27.8
30 Agosto 2026 12:55 tempo osservato: Sereno Sereno 39 27 1011 vento: Nord SO 27.8
30 Agosto 2026 11:55 tempo osservato: Sereno Sereno 38 31 1012 vento: Nord S/SO 38.8
30 Agosto 2026 10:55 tempo osservato: Sereno Sereno 36 32 1012 vento: Nord S 33.3
30 Agosto 2026 09:55 tempo osservato: Sereno Sereno 33 38 1012 vento: Nord S/SO 33.3
30 Agosto 2026 08:55 tempo osservato: Sereno Sereno 29 48 1013 vento: Nord S/SE 25.9
30 Agosto 2026 07:55 tempo osservato: Sereno Sereno 26 54 1013 vento: Nord SE 20.3
30 Agosto 2026 06:55 tempo osservato: Sereno Sereno 26 54 1012 vento: Nord S/SE 16.7
30 Agosto 2026 05:55 tempo osservato: Sereno Sereno 26 50 1012 vento: Nord S/SE 18.5
30 Agosto 2026 04:55 tempo osservato: Sereno Sereno 27 47 1012 vento: Nord S/SE 20.3
30 Agosto 2026 03:55 tempo osservato: Sereno Sereno 28 45 1012 vento: Nord S/SE 18.5
30 Agosto 2026 02:55 tempo osservato: Sereno Sereno 29 42 1011 vento: Nord S/SE 22.2
30 Agosto 2026 01:55 tempo osservato: Sereno Sereno 29 42 1012 vento: Nord S/SE 22.2